sensor_id;sensor_type;location;lat;lon;timestamp;pressure;altitude;pressure_sealevel;temperature;humidity
74433;BME280;62865;53.146;23.172;2022-12-07T00:04:36;1016.7;;;1.3;80.7
74433;BME280;62865;53.146;23.172;2022-12-07T00:09:48;1016.6;;;1.3;81.2
74433;BME280;62865;53.146;23.172;2022-12-07T00:14:34;1016.5;;;1.3;80.8
74433;BME280;62865;53.146;23.172;2022-12-07T00:19:48;1016.4;;;1.3;80.8
74433;BME280;62865;53.146;23.172;2022-12-07T00:24:18;1016.5;;;1.3;80.6
74433;BME280;62865;53.146;23.172;2022-12-07T00:30:00;1016.4;;;1.2;80.9
74433;BME280;62865;53.146;23.172;2022-12-07T00:35:00;1016.4;;;1.2;81.1
74433;BME280;62865;53.146;23.172;2022-12-07T00:39:46;1016.4;;;1.2;81.1
74433;BME280;62865;53.146;23.172;2022-12-07T00:44:58;1016.4;;;1.2;81.1
74433;BME280;62865;53.146;23.172;2022-12-07T00:49:24;1016.3;;;1.1;81.3
74433;BME280;62865;53.146;23.172;2022-12-07T00:54:58;1016.2;;;1;81.6
74433;BME280;62865;53.146;23.172;2022-12-07T00:59:34;1016.2;;;1.1;81.4
74433;BME280;62865;53.146;23.172;2022-12-07T01:04:58;1016.1;;;1.1;81.3
74433;BME280;62865;53.146;23.172;2022-12-07T01:09:34;1016;;;1.1;81.3
74433;BME280;62865;53.146;23.172;2022-12-07T01:14:28;1015.8;;;1.1;81.1
74433;BME280;62865;53.146;23.172;2022-12-07T01:19:28;1015.8;;;1.1;81.4
74433;BME280;62865;53.146;23.172;2022-12-07T01:24:50;1015.8;;;1.2;81
74433;BME280;62865;53.146;23.172;2022-12-07T01:29:36;1015.7;;;1.2;80.9
74433;BME280;62865;53.146;23.172;2022-12-07T01:34:50;1015.7;;;1.3;80.7
74433;BME280;62865;53.146;23.172;2022-12-07T01:39:18;1015.6;;;1.1;81.1
74433;BME280;62865;53.146;23.172;2022-12-07T01:46:10;1015.6;;;1.2;81.1
74433;BME280;62865;53.146;23.172;2022-12-07T01:49:42;1015.6;;;1.2;81.1
74433;BME280;62865;53.146;23.172;2022-12-07T01:54:51;1015.5;;;1.3;81
74433;BME280;62865;53.146;23.172;2022-12-07T01:59:54;1015.5;;;1.3;81
74433;BME280;62865;53.146;23.172;2022-12-07T02:04:30;1015.5;;;1.4;80.4
74433;BME280;62865;53.146;23.172;2022-12-07T02:10:11;1015.4;;;1.2;81
74433;BME280;62865;53.146;23.172;2022-12-07T02:14:28;1015.3;;;1.2;81.3
74433;BME280;62865;53.146;23.172;2022-12-07T02:20:07;1015.2;;;1.2;81.3
74433;BME280;62865;53.146;23.172;2022-12-07T02:24:48;1015.3;;;1.3;80.9
74433;BME280;62865;53.146;23.172;2022-12-07T02:29:20;1015.2;;;1.3;80.8
74433;BME280;62865;53.146;23.172;2022-12-07T02:34:40;1015.1;;;1.3;80.7
74433;BME280;62865;53.146;23.172;2022-12-07T02:39:51;1015.1;;;1.3;81.1
74433;BME280;62865;53.146;23.172;2022-12-07T02:44:20;1015.1;;;1.3;81.1
74433;BME280;62865;53.146;23.172;2022-12-07T02:49:50;1015;;;1.4;80.9
74433;BME280;62865;53.146;23.172;2022-12-07T02:54:18;1015;;;1.6;80.6
74433;BME280;62865;53.146;23.172;2022-12-07T03:00:05;1014.9;;;1.6;80.4
74433;BME280;62865;53.146;23.172;2022-12-07T03:05:08;1014.8;;;1.6;80.4
74433;BME280;62865;53.146;23.172;2022-12-07T03:09:53;1014.7;;;1.6;80.3
74433;BME280;62865;53.146;23.172;2022-12-07T03:14:52;1014.7;;;1.6;80.5
74433;BME280;62865;53.146;23.172;2022-12-07T03:19:19;1014.7;;;1.6;80.7
74433;BME280;62865;53.146;23.172;2022-12-07T03:25:03;1014.7;;;1.6;80.7
74433;BME280;62865;53.146;23.172;2022-12-07T03:29:43;1014.6;;;1.7;80.7
74433;BME280;62865;53.146;23.172;2022-12-07T03:35:03;1014.5;;;1.6;80.8
74433;BME280;62865;53.146;23.172;2022-12-07T03:39:39;1014.4;;;1.7;81.3
74433;BME280;62865;53.146;23.172;2022-12-07T03:44:28;1014.4;;;1.7;81.3
74433;BME280;62865;53.146;23.172;2022-12-07T03:49:30;1014.2;;;1.6;81.4
74433;BME280;62865;53.146;23.172;2022-12-07T03:54:51;1014.2;;;1.7;81.4
74433;BME280;62865;53.146;23.172;2022-12-07T04:00:05;1014.1;;;1.5;81.8
74433;BME280;62865;53.146;23.172;2022-12-07T04:05:04;1014.1;;;1.5;82
74433;BME280;62865;53.146;23.172;2022-12-07T04:09:28;1014.1;;;1.6;82
74433;BME280;62865;53.146;23.172;2022-12-07T04:14:48;1014.1;;;1.7;81.6
74433;BME280;62865;53.146;23.172;2022-12-07T04:19:52;1014.1;;;1.8;81.3
74433;BME280;62865;53.146;23.172;2022-12-07T04:24:50;1014;;;1.8;81
74433;BME280;62865;53.146;23.172;2022-12-07T04:29:16;1013.9;;;2;80.5
74433;BME280;62865;53.146;23.172;2022-12-07T04:34:26;1013.8;;;1.9;80.5
74433;BME280;62865;53.146;23.172;2022-12-07T04:39:34;1013.8;;;1.9;80.5
74433;BME280;62865;53.146;23.172;2022-12-07T04:44:48;1013.8;;;2;80.5
74433;BME280;62865;53.146;23.172;2022-12-07T04:49:36;1013.7;;;2;80.8
74433;BME280;62865;53.146;23.172;2022-12-07T04:55:02;1013.7;;;1.9;81.3
74433;BME280;62865;53.146;23.172;2022-12-07T04:59:16;1013.6;;;1.9;81.6
74433;BME280;62865;53.146;23.172;2022-12-07T05:04:54;1013.6;;;1.9;81.7
74433;BME280;62865;53.146;23.172;2022-12-07T05:09:38;1013.6;;;1.9;81.7
74433;BME280;62865;53.146;23.172;2022-12-07T05:15:00;1013.5;;;1.7;82.3
74433;BME280;62865;53.146;23.172;2022-12-07T05:20:00;1013.5;;;1.7;82.7
74433;BME280;62865;53.146;23.172;2022-12-07T05:24:16;1013.4;;;1.7;82.6
74433;BME280;62865;53.146;23.172;2022-12-07T05:29:49;1013.4;;;1.7;82.7
74433;BME280;62865;53.146;23.172;2022-12-07T05:34:50;1013.4;;;1.8;82.6
74433;BME280;62865;53.146;23.172;2022-12-07T05:39:46;1013.4;;;1.9;82.1
74433;BME280;62865;53.146;23.172;2022-12-07T05:44:38;1013.3;;;1.9;81.9
74433;BME280;62865;53.146;23.172;2022-12-07T05:49:28;1013.2;;;1.9;82.1
74433;BME280;62865;53.146;23.172;2022-12-07T05:54:38;1013.2;;;1.9;82.2
74433;BME280;62865;53.146;23.172;2022-12-07T05:59:46;1013.2;;;2;81.9
74433;BME280;62865;53.146;23.172;2022-12-07T06:04:25;1013.2;;;2.2;81.6
74433;BME280;62865;53.146;23.172;2022-12-07T06:09:58;1013.2;;;2.2;81
74433;BME280;62865;53.146;23.172;2022-12-07T06:19:54;1013.1;;;2.5;80.3
74433;BME280;62865;53.146;23.172;2022-12-07T06:24:26;1013.1;;;2.4;80.5
74433;BME280;62865;53.146;23.172;2022-12-07T06:30:04;1013.1;;;2.3;80.9
74433;BME280;62865;53.146;23.172;2022-12-07T06:35:02;1013;;;2.3;81.2
74433;BME280;62865;53.146;23.172;2022-12-07T06:39:30;1012.9;;;2.4;81.2
74433;BME280;62865;53.146;23.172;2022-12-07T06:44:48;1012.9;;;2.5;81
74433;BME280;62865;53.146;23.172;2022-12-07T06:49:48;1013;;;2.5;81.3
74433;BME280;62865;53.146;23.172;2022-12-07T06:54:46;1012.9;;;2.5;81.3
74433;BME280;62865;53.146;23.172;2022-12-07T06:59:37;1012.9;;;2.5;81.3
74433;BME280;62865;53.146;23.172;2022-12-07T07:04:16;1012.9;;;2.6;81.1
74433;BME280;62865;53.146;23.172;2022-12-07T07:09:26;1012.9;;;2.7;81
74433;BME280;62865;53.146;23.172;2022-12-07T07:14:46;1012.8;;;2.6;81.1
74433;BME280;62865;53.146;23.172;2022-12-07T07:19:34;1012.8;;;2.6;81.3
74433;BME280;62865;53.146;23.172;2022-12-07T07:24:59;1012.7;;;2.6;81.4
74433;BME280;62865;53.146;23.172;2022-12-07T07:29:38;1012.6;;;2.6;81.6
74433;BME280;62865;53.146;23.172;2022-12-07T07:34:20;1012.7;;;2.6;81.5
74433;BME280;62865;53.146;23.172;2022-12-07T07:39:26;1012.7;;;2.7;81.3
74433;BME280;62865;53.146;23.172;2022-12-07T07:45:00;1012.7;;;2.8;80.9
74433;BME280;62865;53.146;23.172;2022-12-07T07:50:00;1012.7;;;2.9;80.6
74433;BME280;62865;53.146;23.172;2022-12-07T07:54:26;1012.7;;;2.9;80.6
74433;BME280;62865;53.146;23.172;2022-12-07T07:59:48;1012.7;;;2.9;80.7
74433;BME280;62865;53.146;23.172;2022-12-07T08:04:52;1012.6;;;2.9;80.6
74433;BME280;62865;53.146;23.172;2022-12-07T08:09:46;1012.6;;;2.9;80.5
74433;BME280;62865;53.146;23.172;2022-12-07T08:14:35;1012.6;;;3;80.2
74433;BME280;62865;53.146;23.172;2022-12-07T08:19:18;1012.7;;;3.1;79.8
74433;BME280;62865;53.146;23.172;2022-12-07T08:24:28;1012.7;;;3.1;79.4
74433;BME280;62865;53.146;23.172;2022-12-07T08:29:48;1012.6;;;3.1;79.3
74433;BME280;62865;53.146;23.172;2022-12-07T08:35:02;1012.7;;;3.1;79.4
74433;BME280;62865;53.146;23.172;2022-12-07T08:40:03;1012.6;;;3.3;79
74433;BME280;62865;53.146;23.172;2022-12-07T08:44:28;1012.6;;;3.2;79.3
74433;BME280;62865;53.146;23.172;2022-12-07T08:49:41;1012.6;;;3.3;79.3
74433;BME280;62865;53.146;23.172;2022-12-07T08:54:40;1012.5;;;3.3;79.2
74433;BME280;62865;53.146;23.172;2022-12-07T09:00:03;1012.5;;;3.5;78.9
74433;BME280;62865;53.146;23.172;2022-12-07T09:05:00;1012.4;;;3.5;78.6
74433;BME280;62865;53.146;23.172;2022-12-07T09:09:16;1012.4;;;3.5;78.5
74433;BME280;62865;53.146;23.172;2022-12-07T09:14:46;1012.4;;;3.7;78.1
74433;BME280;62865;53.146;23.172;2022-12-07T09:19:18;1012.4;;;3.6;77.7
74433;BME280;62865;53.146;23.172;2022-12-07T09:24:48;1012.3;;;3.5;78
74433;BME280;62865;53.146;23.172;2022-12-07T09:29:40;1012.3;;;3.4;78.4
74433;BME280;62865;53.146;23.172;2022-12-07T09:34:26;1012.2;;;3.3;78.7
74433;BME280;62865;53.146;23.172;2022-12-07T09:39:26;1012.2;;;3.2;79.2
74433;BME280;62865;53.146;23.172;2022-12-07T09:45:00;1012.2;;;3.2;79.3
74433;BME280;62865;53.146;23.172;2022-12-07T09:49:46;1012.2;;;3.2;79.5
74433;BME280;62865;53.146;23.172;2022-12-07T09:55:00;1012.1;;;3.2;79.3
74433;BME280;62865;53.146;23.172;2022-12-07T09:59:28;1012.1;;;3.2;79.4
74433;BME280;62865;53.146;23.172;2022-12-07T10:04:52;1012.1;;;3.1;79.6
74433;BME280;62865;53.146;23.172;2022-12-07T10:09:38;1012;;;3.1;79.5
74433;BME280;62865;53.146;23.172;2022-12-07T10:15:01;1012;;;3.1;79.6
74433;BME280;62865;53.146;23.172;2022-12-07T10:20:08;1012;;;3;79.7
74433;BME280;62865;53.146;23.172;2022-12-07T10:24:18;1012;;;3;80.2
74433;BME280;62865;53.146;23.172;2022-12-07T10:29:51;1011.9;;;3;80.1
74433;BME280;62865;53.146;23.172;2022-12-07T10:35:15;1011.9;;;3.1;79.8
74433;BME280;62865;53.146;23.172;2022-12-07T10:39:28;1011.8;;;3;79.8
74433;BME280;62865;53.146;23.172;2022-12-07T10:44:36;1011.8;;;2.9;80.4
74433;BME280;62865;53.146;23.172;2022-12-07T10:49:31;1011.8;;;3;80.2
74433;BME280;62865;53.146;23.172;2022-12-07T10:54:40;1011.7;;;2.9;80.3
74433;BME280;62865;53.146;23.172;2022-12-07T10:59:52;1011.7;;;2.9;80.5
74433;BME280;62865;53.146;23.172;2022-12-07T11:04:38;1011.6;;;3;80.3
74433;BME280;62865;53.146;23.172;2022-12-07T11:10:02;1011.6;;;3;80.1
74433;BME280;62865;53.146;23.172;2022-12-07T11:14:28;1011.6;;;3.1;80.1
74433;BME280;62865;53.146;23.172;2022-12-07T11:19:53;1011.6;;;3.1;79.8
74433;BME280;62865;53.146;23.172;2022-12-07T11:24:40;1011.6;;;3;80.2
74433;BME280;62865;53.146;23.172;2022-12-07T11:30:06;1011.5;;;3.1;80
74433;BME280;62865;53.146;23.172;2022-12-07T11:35:03;1011.4;;;3.1;79.9
74433;BME280;62865;53.146;23.172;2022-12-07T11:39:30;1011.4;;;3.1;79.7
74433;BME280;62865;53.146;23.172;2022-12-07T11:44:50;1011.4;;;3.1;79.9
74433;BME280;62865;53.146;23.172;2022-12-07T11:49:51;1011.4;;;3.2;79.7
74433;BME280;62865;53.146;23.172;2022-12-07T11:54:49;1011.4;;;3.2;79.5
74433;BME280;62865;53.146;23.172;2022-12-07T11:59:39;1011.3;;;3.1;80
74433;BME280;62865;53.146;23.172;2022-12-07T12:04:20;1011.3;;;3;80
74433;BME280;62865;53.146;23.172;2022-12-07T12:09:40;1011.3;;;2.9;80.8
74433;BME280;62865;53.146;23.172;2022-12-07T12:14:52;1011.2;;;2.9;80.7
74433;BME280;62865;53.146;23.172;2022-12-07T12:19:37;1011.2;;;2.9;80.7
74433;BME280;62865;53.146;23.172;2022-12-07T12:24:58;1011.2;;;2.9;80.5
74433;BME280;62865;53.146;23.172;2022-12-07T12:29:39;1011.2;;;2.9;80.9
74433;BME280;62865;53.146;23.172;2022-12-07T12:35:00;1011.2;;;2.9;80.9
74433;BME280;62865;53.146;23.172;2022-12-07T12:39:29;1011.2;;;2.8;81.1
74433;BME280;62865;53.146;23.172;2022-12-07T12:45:03;1011.1;;;2.8;81.3
74433;BME280;62865;53.146;23.172;2022-12-07T12:50:11;1011.1;;;2.8;81.1
74433;BME280;62865;53.146;23.172;2022-12-07T12:54:31;1011.1;;;2.8;81.4
74433;BME280;62865;53.146;23.172;2022-12-07T12:59:55;1011.1;;;2.7;81.3
74433;BME280;62865;53.146;23.172;2022-12-07T13:04:53;1011.2;;;2.6;81.8
74433;BME280;62865;53.146;23.172;2022-12-07T13:09:50;1011.2;;;2.6;82
74433;BME280;62865;53.146;23.172;2022-12-07T13:14:43;1011.2;;;2.5;82
74433;BME280;62865;53.146;23.172;2022-12-07T13:24:38;1011.2;;;2.4;82.3
74433;BME280;62865;53.146;23.172;2022-12-07T13:30:01;1011.2;;;2.4;82.5
74433;BME280;62865;53.146;23.172;2022-12-07T13:34:37;1011.3;;;2.5;82.5
74433;BME280;62865;53.146;23.172;2022-12-07T13:40:03;1011.3;;;2.5;82.5
74433;BME280;62865;53.146;23.172;2022-12-07T13:44:19;1011.3;;;2.5;82.4
74433;BME280;62865;53.146;23.172;2022-12-07T13:49:31;1011.4;;;2.5;82.4
74433;BME280;62865;53.146;23.172;2022-12-07T13:54:30;1011.3;;;2.5;82.3
74433;BME280;62865;53.146;23.172;2022-12-07T13:59:49;1011.4;;;2.4;82.6
74433;BME280;62865;53.146;23.172;2022-12-07T14:05:09;1011.4;;;2.5;82.6
74433;BME280;62865;53.146;23.172;2022-12-07T14:09:20;1011.4;;;2.5;82.5
74433;BME280;62865;53.146;23.172;2022-12-07T14:14:19;1011.4;;;2.5;82.4
74433;BME280;62865;53.146;23.172;2022-12-07T14:19:40;1011.4;;;2.5;82.5
74433;BME280;62865;53.146;23.172;2022-12-07T14:24:51;1011.5;;;2.5;82.5
74433;BME280;62865;53.146;23.172;2022-12-07T14:29:38;1011.5;;;2.4;82.6
74433;BME280;62865;53.146;23.172;2022-12-07T14:34:26;1011.6;;;2.4;82.7
74433;BME280;62865;53.146;23.172;2022-12-07T14:39:38;1011.6;;;2.4;82.9
74433;BME280;62865;53.146;23.172;2022-12-07T14:45:00;1011.6;;;2.4;82.7
74433;BME280;62865;53.146;23.172;2022-12-07T14:49:37;1011.6;;;2.5;82.5
74433;BME280;62865;53.146;23.172;2022-12-07T14:55:01;1011.7;;;2.5;82.4
74433;BME280;62865;53.146;23.172;2022-12-07T14:59:18;1011.8;;;2.5;82.3
74433;BME280;62865;53.146;23.172;2022-12-07T15:04:30;1011.8;;;2.5;82.1
74433;BME280;62865;53.146;23.172;2022-12-07T15:09:38;1011.8;;;2.5;82.1
74433;BME280;62865;53.146;23.172;2022-12-07T15:14:48;1011.8;;;2.6;82
74433;BME280;62865;53.146;23.172;2022-12-07T15:20:03;1011.8;;;2.6;81.7
74433;BME280;62865;53.146;23.172;2022-12-07T15:24:19;1011.9;;;2.6;81.5
74433;BME280;62865;53.146;23.172;2022-12-07T15:29:30;1011.8;;;2.7;81.4
74433;BME280;62865;53.146;23.172;2022-12-07T15:34:52;1011.8;;;2.7;81.1
74433;BME280;62865;53.146;23.172;2022-12-07T15:39:49;1011.8;;;2.7;80.7
74433;BME280;62865;53.146;23.172;2022-12-07T15:44:38;1011.8;;;2.7;80.4
74433;BME280;62865;53.146;23.172;2022-12-07T15:49:38;1011.9;;;2.8;80.3
74433;BME280;62865;53.146;23.172;2022-12-07T15:54:31;1011.9;;;2.8;80.1
74433;BME280;62865;53.146;23.172;2022-12-07T16:00:03;1012;;;2.8;80
74433;BME280;62865;53.146;23.172;2022-12-07T16:05:03;1012;;;2.8;79.7
74433;BME280;62865;53.146;23.172;2022-12-07T16:10:03;1012;;;2.8;79.7
74433;BME280;62865;53.146;23.172;2022-12-07T16:14:19;1012;;;2.8;79.8
74433;BME280;62865;53.146;23.172;2022-12-07T16:19:27;1012.1;;;2.8;79.8
74433;BME280;62865;53.146;23.172;2022-12-07T16:24:41;1012;;;2.8;80
74433;BME280;62865;53.146;23.172;2022-12-07T16:29:51;1012;;;2.8;79.9
74433;BME280;62865;53.146;23.172;2022-12-07T16:35:03;1012;;;2.8;79.5
74433;BME280;62865;53.146;23.172;2022-12-07T16:39:39;1012;;;2.8;79.7
74433;BME280;62865;53.146;23.172;2022-12-07T16:44:19;1012;;;2.8;79.8
74433;BME280;62865;53.146;23.172;2022-12-07T16:49:53;1012;;;2.8;80.1
74433;BME280;62865;53.146;23.172;2022-12-07T16:54:51;1012;;;2.8;80.2
74433;BME280;62865;53.146;23.172;2022-12-07T16:59:41;1012;;;2.8;80.1
74433;BME280;62865;53.146;23.172;2022-12-07T17:04:19;1012;;;2.9;80.2
74433;BME280;62865;53.146;23.172;2022-12-07T17:09:19;1011.9;;;2.9;80.3
74433;BME280;62865;53.146;23.172;2022-12-07T17:14:49;1011.9;;;2.8;80.9
74433;BME280;62865;53.146;23.172;2022-12-07T17:19:41;1011.9;;;2.8;81.1
74433;BME280;62865;53.146;23.172;2022-12-07T17:25:01;1011.9;;;2.8;81.1
74433;BME280;62865;53.146;23.172;2022-12-07T17:29:29;1011.9;;;2.7;81.4
74433;BME280;62865;53.146;23.172;2022-12-07T17:34:19;1011.8;;;2.7;81.7
74433;BME280;62865;53.146;23.172;2022-12-07T17:39:41;1011.8;;;2.7;81.7
74433;BME280;62865;53.146;23.172;2022-12-07T17:44:50;1011.7;;;2.7;81.6
74433;BME280;62865;53.146;23.172;2022-12-07T17:49:51;1011.7;;;2.7;81.4
74433;BME280;62865;53.146;23.172;2022-12-07T17:55:03;1011.7;;;2.7;81.6
74433;BME280;62865;53.146;23.172;2022-12-07T17:59:17;1011.7;;;2.7;81.8
74433;BME280;62865;53.146;23.172;2022-12-07T18:05:03;1011.7;;;2.7;81.7
74433;BME280;62865;53.146;23.172;2022-12-07T18:09:31;1011.7;;;2.7;81.9
74433;BME280;62865;53.146;23.172;2022-12-07T18:14:37;1011.6;;;2.7;81.7
74433;BME280;62865;53.146;23.172;2022-12-07T18:19:51;1011.6;;;2.7;81.8
74433;BME280;62865;53.146;23.172;2022-12-07T18:24:31;1011.6;;;2.7;82
74433;BME280;62865;53.146;23.172;2022-12-07T18:30:01;1011.6;;;2.7;81.6
74433;BME280;62865;53.146;23.172;2022-12-07T18:34:27;1011.6;;;2.7;81.8
74433;BME280;62865;53.146;23.172;2022-12-07T18:40:04;1011.6;;;2.6;81.9
74433;BME280;62865;53.146;23.172;2022-12-07T18:44:51;1011.6;;;2.6;81.9
74433;BME280;62865;53.146;23.172;2022-12-07T18:49:19;1011.5;;;2.6;81.6
74433;BME280;62865;53.146;23.172;2022-12-07T18:54:39;1011.5;;;2.6;81.7
74433;BME280;62865;53.146;23.172;2022-12-07T18:59:31;1011.5;;;2.7;81.7
74433;BME280;62865;53.146;23.172;2022-12-07T19:04:53;1011.5;;;2.7;81.5
74433;BME280;62865;53.146;23.172;2022-12-07T19:10:03;1011.4;;;2.7;81.3
74433;BME280;62865;53.146;23.172;2022-12-07T19:19:29;1011.4;;;2.8;81.2
74433;BME280;62865;53.146;23.172;2022-12-07T19:24:39;1011.4;;;2.7;81.1
74433;BME280;62865;53.146;23.172;2022-12-07T19:29:41;1011.4;;;2.7;81.2
74433;BME280;62865;53.146;23.172;2022-12-07T19:34:53;1011.5;;;2.8;81
74433;BME280;62865;53.146;23.172;2022-12-07T19:39:19;1011.5;;;2.8;80.9
74433;BME280;62865;53.146;23.172;2022-12-07T19:45:01;1011.4;;;2.9;80.4
74433;BME280;62865;53.146;23.172;2022-12-07T19:49:37;1011.5;;;2.9;80.4
74433;BME280;62865;53.146;23.172;2022-12-07T19:55:01;1011.4;;;2.9;80.4
74433;BME280;62865;53.146;23.172;2022-12-07T19:59:39;1011.4;;;2.9;80.4
74433;BME280;62865;53.146;23.172;2022-12-07T20:04:29;1011.4;;;2.9;80.5
74433;BME280;62865;53.146;23.172;2022-12-07T20:09:41;1011.4;;;2.9;80.5
74433;BME280;62865;53.146;23.172;2022-12-07T20:14:49;1011.4;;;2.9;80.5
74433;BME280;62865;53.146;23.172;2022-12-07T20:19:51;1011.3;;;2.9;80.6
74433;BME280;62865;53.146;23.172;2022-12-07T20:24:49;1011.4;;;2.9;80.5
74433;BME280;62865;53.146;23.172;2022-12-07T20:29:20;1011.4;;;2.8;80.9
74433;BME280;62865;53.146;23.172;2022-12-07T20:35:01;1011.5;;;2.7;81.1
74433;BME280;62865;53.146;23.172;2022-12-07T20:39:49;1011.5;;;2.6;81.4
74433;BME280;62865;53.146;23.172;2022-12-07T20:44:39;1011.5;;;2.6;81.2
74433;BME280;62865;53.146;23.172;2022-12-07T20:49:51;1011.5;;;2.6;81.3
74433;BME280;62865;53.146;23.172;2022-12-07T20:54:19;1011.6;;;2.6;81.1
74433;BME280;62865;53.146;23.172;2022-12-07T21:00:01;1011.7;;;2.6;81.1
74433;BME280;62865;53.146;23.172;2022-12-07T21:04:37;1011.7;;;2.7;81.1
74433;BME280;62865;53.146;23.172;2022-12-07T21:10:03;1011.7;;;2.7;80.8
74433;BME280;62865;53.146;23.172;2022-12-07T21:14:41;1011.7;;;2.8;80.4
74433;BME280;62865;53.146;23.172;2022-12-07T21:19:19;1011.7;;;2.8;80.4
74433;BME280;62865;53.146;23.172;2022-12-07T21:24:53;1011.8;;;2.8;80.1
74433;BME280;62865;53.146;23.172;2022-12-07T21:29:51;1011.9;;;2.8;80
74433;BME280;62865;53.146;23.172;2022-12-07T21:34:51;1011.9;;;2.8;80
74433;BME280;62865;53.146;23.172;2022-12-07T21:40:03;1011.9;;;2.9;79.7
74433;BME280;62865;53.146;23.172;2022-12-07T21:44:25;1011.9;;;2.9;79.7
74433;BME280;62865;53.146;23.172;2022-12-07T21:49:59;1011.9;;;2.9;79.6
74433;BME280;62865;53.146;23.172;2022-12-07T21:54:21;1011.9;;;2.9;79.6
74433;BME280;62865;53.146;23.172;2022-12-07T21:59:47;1011.9;;;2.5;81.3
74433;BME280;62865;53.146;23.172;2022-12-07T22:04:49;1012;;;2.3;82.4
74433;BME280;62865;53.146;23.172;2022-12-07T22:09:35;1012;;;2.3;82.3
74433;BME280;62865;53.146;23.172;2022-12-07T22:14:55;1012.1;;;2.3;82.1
74433;BME280;62865;53.146;23.172;2022-12-07T22:19:33;1012.1;;;2.3;82
74433;BME280;62865;53.146;23.172;2022-12-07T22:24:47;1012;;;2.3;82.3
74433;BME280;62865;53.146;23.172;2022-12-07T22:29:35;1012;;;2.2;82.5
74433;BME280;62865;53.146;23.172;2022-12-07T22:34:33;1012.1;;;2.2;82.4
74433;BME280;62865;53.146;23.172;2022-12-07T22:39:37;1012.2;;;2.3;82.2
74433;BME280;62865;53.146;23.172;2022-12-07T22:44:45;1012.1;;;2.3;81.6
74433;BME280;62865;53.146;23.172;2022-12-07T22:49:27;1012.2;;;2.3;81.5
74433;BME280;62865;53.146;23.172;2022-12-07T22:54:47;1012.2;;;2.4;81.5
74433;BME280;62865;53.146;23.172;2022-12-07T22:59:19;1012.3;;;2.4;81.3
74433;BME280;62865;53.146;23.172;2022-12-07T23:04:57;1012.3;;;2.4;81.2
74433;BME280;62865;53.146;23.172;2022-12-07T23:09:57;1012.4;;;2.4;81.1
74433;BME280;62865;53.146;23.172;2022-12-07T23:14:45;1012.4;;;2.4;81.5
74433;BME280;62865;53.146;23.172;2022-12-07T23:19:47;1012.4;;;2.4;81.5
74433;BME280;62865;53.146;23.172;2022-12-07T23:24:19;1012.4;;;2.3;81.9
74433;BME280;62865;53.146;23.172;2022-12-07T23:29:57;1012.4;;;2.2;82.4
74433;BME280;62865;53.146;23.172;2022-12-07T23:34:35;1012.5;;;2.1;82.6
74433;BME280;62865;53.146;23.172;2022-12-07T23:39:59;1012.5;;;2;82.9
74433;BME280;62865;53.146;23.172;2022-12-07T23:44:35;1012.6;;;2;82.8
74433;BME280;62865;53.146;23.172;2022-12-07T23:49:19;1012.5;;;2;82.5
74433;BME280;62865;53.146;23.172;2022-12-07T23:54:35;1012.5;;;2.1;82.1
74433;BME280;62865;53.146;23.172;2022-12-07T23:59:45;1012.6;;;2.1;82.8
